Time;durP1;ratioP1;P1;durP2;ratioP2;P2;SDS_P1;SDS_P2;PMS_P1;PMS_P2;Temp;Humidity;BMP_temperature;BMP_pressure;BME280_temperature;BME280_humidity;BME280_pressure;Samples;Min_cycle;Max_cycle;Signal;HPM_P1;HPM_P2
2022/04/24 00:01:08;;;;;;;7.82;5.57;;;11.40;99.90;;;;;;5077366;28;20043;-73
2022/04/24 00:03:34;;;;;;;6.28;5.60;;;11.30;99.90;;;;;;5077694;28;20098;-73
2022/04/24 00:06:00;;;;;;;8.60;5.90;;;11.30;99.90;;;;;;5076961;28;20508;-73
2022/04/24 00:08:25;;;;;;;7.95;5.30;;;11.30;99.90;;;;;;5077615;28;20036;-73
2022/04/24 00:10:51;;;;;;;6.93;5.70;;;11.20;99.90;;;;;;5077417;28;20040;-73
2022/04/24 00:13:17;;;;;;;7.32;5.88;;;11.20;99.90;;;;;;5077178;28;20032;-73
2022/04/24 00:15:42;;;;;;;8.23;5.72;;;11.20;99.90;;;;;;5077322;28;20069;-73
2022/04/24 00:18:08;;;;;;;6.80;5.72;;;11.10;99.90;;;;;;5077303;28;20040;-73
2022/04/24 00:20:34;;;;;;;7.85;5.95;;;11.10;99.90;;;;;;5077059;28;20118;-73
2022/04/24 00:23:00;;;;;;;8.02;6.32;;;11.10;99.90;;;;;;5077032;28;20161;-73
2022/04/24 00:25:25;;;;;;;8.25;5.65;;;11.00;99.90;;;;;;5076944;28;20036;-73
2022/04/24 00:27:51;;;;;;;7.75;5.43;;;11.00;99.90;;;;;;5076941;28;20063;-74
2022/04/24 00:30:17;;;;;;;6.38;5.43;;;11.00;99.90;;;;;;5076813;28;20119;-73
2022/04/24 00:32:42;;;;;;;7.68;5.30;;;10.90;99.90;;;;;;5076908;28;20092;-74
2022/04/24 00:35:08;;;;;;;6.50;5.20;;;10.90;99.90;;;;;;5076955;28;20096;-74
2022/04/24 00:37:34;;;;;;;9.43;5.57;;;10.90;99.90;;;;;;5076748;28;20093;-74
2022/04/24 00:39:59;;;;;;;9.73;6.10;;;10.90;99.90;;;;;;5076706;28;20036;-73
2022/04/24 00:42:25;;;;;;;9.85;5.70;;;10.80;99.90;;;;;;5077620;28;20047;-73
2022/04/24 00:44:50;;;;;;;6.93;5.15;;;10.80;99.90;;;;;;5076503;28;20050;-73
2022/04/24 00:47:18;;;;;;;8.93;5.95;;;10.80;99.90;;;;;;5076616;28;20036;-73
2022/04/24 00:49:45;;;;;;;8.80;5.47;;;10.80;99.90;;;;;;5076855;28;20484;-73
2022/04/24 00:52:11;;;;;;;7.38;5.95;;;10.80;99.90;;;;;;5076718;28;20027;-73
2022/04/24 00:54:37;;;;;;;7.70;5.13;;;10.70;99.90;;;;;;5076366;28;20062;-73
2022/04/24 00:57:06;;;;;;;7.90;5.63;;;10.70;99.90;;;;;;5059879;28;20563;-74
2022/04/24 00:59:31;;;;;;;8.07;5.78;;;10.70;99.90;;;;;;5076282;28;20051;-73
2022/04/24 01:01:59;;;;;;;7.63;5.50;;;10.70;99.90;;;;;;5076750;28;20040;-73
2022/04/24 01:04:25;;;;;;;6.57;5.60;;;10.70;99.90;;;;;;5076433;28;20048;-73
2022/04/24 01:06:50;;;;;;;7.22;5.20;;;10.60;99.90;;;;;;5076174;28;20047;-73
2022/04/24 01:09:20;;;;;;;8.80;5.68;;;10.60;99.90;;;;;;5075959;28;20065;-73
2022/04/24 01:11:47;;;;;;;8.95;5.90;;;10.50;99.90;;;;;;5059726;28;20043;-73
2022/04/24 01:14:16;;;;;;;6.63;5.28;;;10.50;99.90;;;;;;5076069;28;20115;-73
2022/04/24 01:16:42;;;;;;;6.43;5.40;;;10.50;99.90;;;;;;5075440;28;20055;-73
2022/04/24 01:19:07;;;;;;;6.25;5.43;;;10.50;99.90;;;;;;5076054;28;20039;-73
2022/04/24 01:21:33;;;;;;;7.07;5.15;;;10.40;99.90;;;;;;5076350;28;20040;-73
2022/04/24 01:23:59;;;;;;;6.63;5.43;;;10.40;99.90;;;;;;5075869;28;20040;-73
2022/04/24 01:26:25;;;;;;;7.97;5.68;;;10.30;99.90;;;;;;5076022;28;20039;-73
2022/04/24 01:28:50;;;;;;;7.70;5.68;;;10.30;99.90;;;;;;5059344;28;20541;-73
2022/04/24 01:31:16;;;;;;;7.93;5.78;;;10.30;99.90;;;;;;5075825;28;20040;-73
2022/04/24 01:33:42;;;;;;;7.47;5.68;;;10.30;99.90;;;;;;5075769;28;20039;-73
2022/04/24 01:36:08;;;;;;;7.82;5.63;;;10.30;99.90;;;;;;5076174;28;20035;-73
2022/04/24 01:38:33;;;;;;;8.02;5.80;;;10.20;99.90;;;;;;5076087;28;20389;-73
2022/04/24 01:40:59;;;;;;;7.80;5.68;;;10.20;99.90;;;;;;5075939;28;20403;-73
2022/04/24 01:43:25;;;;;;;8.77;5.35;;;10.10;99.90;;;;;;5076055;28;20511;-73
2022/04/24 01:45:50;;;;;;;7.90;5.85;;;10.10;99.90;;;;;;5075746;28;20471;-73
2022/04/24 01:48:16;;;;;;;6.22;5.30;;;10.10;99.90;;;;;;5075870;28;20044;-73
2022/04/24 01:50:41;;;;;;;7.93;6.07;;;10.10;99.90;;;;;;5075719;28;20038;-73
2022/04/24 01:53:07;;;;;;;7.57;5.90;;;10.00;99.90;;;;;;5075661;28;20127;-73
2022/04/24 01:55:32;;;;;;;6.63;5.93;;;10.00;99.90;;;;;;5075500;28;20454;-73
2022/04/24 01:57:58;;;;;;;6.75;5.22;;;9.90;99.90;;;;;;5075544;28;20036;-73
2022/04/24 02:00:24;;;;;;;6.45;5.55;;;9.90;99.90;;;;;;5075754;28;20081;-73
2022/04/24 02:02:49;;;;;;;8.48;6.20;;;9.90;99.90;;;;;;5075547;28;20093;-73
2022/04/24 02:05:15;;;;;;;8.52;5.63;;;9.90;99.90;;;;;;5075380;28;20036;-73
2022/04/24 02:07:41;;;;;;;7.13;5.95;;;9.90;99.90;;;;;;5075145;28;20044;-73
2022/04/24 02:10:07;;;;;;;6.93;5.60;;;9.80;99.90;;;;;;5075439;28;20075;-73
2022/04/24 02:12:32;;;;;;;8.45;6.30;;;9.80;99.90;;;;;;5075851;28;20085;-73
2022/04/24 02:14:58;;;;;;;7.40;5.88;;;9.70;99.90;;;;;;5075378;28;20036;-73
2022/04/24 02:17:24;;;;;;;7.15;5.70;;;9.70;99.90;;;;;;5075697;28;20128;-73
2022/04/24 02:19:49;;;;;;;8.43;5.85;;;9.70;99.90;;;;;;5075411;28;20453;-73
2022/04/24 02:22:15;;;;;;;6.53;5.82;;;9.60;99.90;;;;;;5075386;28;20161;-73
2022/04/24 02:24:40;;;;;;;8.13;6.20;;;9.60;99.90;;;;;;5075114;28;20047;-73
2022/04/24 02:27:07;;;;;;;6.85;6.15;;;9.50;99.90;;;;;;5075341;28;20044;-73
2022/04/24 02:29:33;;;;;;;10.10;5.60;;;9.50;99.90;;;;;;5061789;28;20094;-73
2022/04/24 02:31:59;;;;;;;8.05;6.00;;;9.50;99.90;;;;;;5079268;28;20040;-73
2022/04/24 02:34:26;;;;;;;9.02;6.47;;;9.40;99.90;;;;;;5130999;22;20031;-71
2022/04/24 02:36:52;;;;;;;6.90;6.20;;;9.40;99.90;;;;;;5133169;27;20506;-71
2022/04/24 02:39:18;;;;;;;9.40;5.70;;;9.40;99.90;;;;;;5133140;27;20495;-71
2022/04/24 02:41:44;;;;;;;8.85;6.32;;;9.30;99.90;;;;;;5133024;27;20564;-71
2022/04/24 02:44:09;;;;;;;6.88;5.93;;;9.30;99.90;;;;;;5116017;28;20067;-71
2022/04/24 02:46:35;;;;;;;8.13;5.97;;;9.30;99.90;;;;;;5098698;28;20487;-71
2022/04/24 02:49:00;;;;;;;8.07;5.88;;;9.30;99.90;;;;;;5115749;28;20058;-71
2022/04/24 02:51:26;;;;;;;9.40;5.95;;;9.30;99.90;;;;;;5115693;28;20126;-71
2022/04/24 02:53:51;;;;;;;7.30;6.25;;;9.30;99.90;;;;;;5115570;28;20123;-71
2022/04/24 02:56:17;;;;;;;9.13;6.30;;;9.20;99.90;;;;;;5115609;28;20036;-71
2022/04/24 02:58:44;;;;;;;9.70;6.35;;;9.20;99.90;;;;;;5115541;28;20036;-71
2022/04/24 03:01:11;;;;;;;8.15;5.90;;;9.10;99.90;;;;;;5115805;28;20054;-71
2022/04/24 03:03:37;;;;;;;10.15;5.95;;;9.10;99.90;;;;;;5115337;28;20043;-71
2022/04/24 03:06:03;;;;;;;7.90;5.80;;;9.10;99.90;;;;;;5115342;28;20510;-71
2022/04/24 03:08:29;;;;;;;6.47;5.78;;;9.10;99.90;;;;;;5115392;28;20043;-71
2022/04/24 03:10:55;;;;;;;7.20;5.55;;;9.10;99.90;;;;;;5115330;28;20036;-71
2022/04/24 03:13:20;;;;;;;8.25;5.57;;;9.10;99.90;;;;;;5115226;28;20039;-71
2022/04/24 03:15:47;;;;;;;6.60;5.85;;;9.00;99.90;;;;;;5115445;28;20053;-71
2022/04/24 03:18:13;;;;;;;8.40;6.38;;;9.00;99.90;;;;;;5098447;28;20066;-71
2022/04/24 03:20:38;;;;;;;8.88;5.90;;;8.90;99.90;;;;;;5115139;28;20499;-71
2022/04/24 03:23:04;;;;;;;6.97;5.40;;;8.90;99.90;;;;;;5115013;28;20048;-71
2022/04/24 03:25:29;;;;;;;9.20;6.35;;;8.90;99.90;;;;;;5097873;28;20035;-71
2022/04/24 03:27:55;;;;;;;7.97;5.93;;;8.80;99.90;;;;;;5115288;28;20036;-71
2022/04/24 03:30:21;;;;;;;6.80;5.85;;;8.80;99.90;;;;;;5114959;28;20038;-71
2022/04/24 03:32:46;;;;;;;8.32;5.95;;;8.80;99.90;;;;;;5114636;28;20032;-71
2022/04/24 03:35:12;;;;;;;6.53;5.82;;;8.80;99.90;;;;;;5115135;28;20042;-71
2022/04/24 03:37:39;;;;;;;7.10;6.30;;;8.80;99.90;;;;;;5114828;28;20052;-71
2022/04/24 03:40:06;;;;;;;7.68;5.75;;;8.70;99.90;;;;;;5114336;28;20115;-71
2022/04/24 03:42:32;;;;;;;9.57;6.40;;;8.70;99.90;;;;;;5115004;28;20036;-71
2022/04/24 03:44:58;;;;;;;6.88;6.18;;;8.70;99.90;;;;;;5097823;28;20036;-71
2022/04/24 03:47:23;;;;;;;7.55;5.78;;;8.70;99.90;;;;;;5114598;28;20078;-71
2022/04/24 03:49:49;;;;;;;8.23;6.25;;;8.60;99.90;;;;;;5114585;28;20483;-71
2022/04/24 03:52:15;;;;;;;8.10;6.32;;;8.60;99.90;;;;;;5114547;28;20077;-71
2022/04/24 03:54:41;;;;;;;7.07;6.20;;;8.60;99.90;;;;;;5114407;28;20036;-71
2022/04/24 03:57:07;;;;;;;8.07;6.10;;;8.60;99.90;;;;;;5114427;28;20039;-71
2022/04/24 03:59:32;;;;;;;8.60;6.05;;;8.50;99.90;;;;;;5114358;28;20043;-71
2022/04/24 04:01:58;;;;;;;7.95;6.03;;;8.50;99.90;;;;;;5114353;28;20038;-71
2022/04/24 04:04:25;;;;;;;9.13;6.43;;;8.50;99.90;;;;;;5114509;28;20065;-71
2022/04/24 04:06:51;;;;;;;8.75;6.53;;;8.40;99.90;;;;;;5114094;28;20084;-71
2022/04/24 04:09:16;;;;;;;7.72;5.85;;;8.50;99.90;;;;;;5114469;28;20040;-71
2022/04/24 04:11:42;;;;;;;8.95;6.75;;;8.40;99.90;;;;;;5114406;28;20118;-71
2022/04/24 04:14:08;;;;;;;7.90;6.72;;;8.40;99.90;;;;;;5114305;28;20494;-71
2022/04/24 04:16:33;;;;;;;7.53;6.28;;;8.40;99.90;;;;;;5114027;28;20495;-71
2022/04/24 04:18:59;;;;;;;8.23;6.50;;;8.40;99.90;;;;;;5114266;28;20031;-71
2022/04/24 04:21:24;;;;;;;10.10;6.45;;;8.40;99.90;;;;;;5115078;28;20540;-71
2022/04/24 04:23:50;;;;;;;10.73;7.20;;;8.30;99.90;;;;;;5114560;28;20481;-71
2022/04/24 04:26:17;;;;;;;9.30;6.13;;;8.30;99.90;;;;;;5113830;28;20486;-71
2022/04/24 04:28:46;;;;;;;7.90;6.70;;;8.30;99.90;;;;;;5096826;28;20028;-71
2022/04/24 04:31:13;;;;;;;9.80;6.78;;;8.30;99.90;;;;;;5113811;28;20478;-71
2022/04/24 04:33:39;;;;;;;7.95;6.53;;;8.30;99.90;;;;;;5113566;28;20039;-71
2022/04/24 04:36:05;;;;;;;8.23;6.00;;;8.30;99.90;;;;;;5113690;28;20039;-70
2022/04/24 04:38:31;;;;;;;10.02;7.28;;;8.30;99.90;;;;;;5113836;28;20449;-70
2022/04/24 04:40:56;;;;;;;9.80;6.45;;;8.30;99.90;;;;;;5113562;28;20047;-70
2022/04/24 04:43:22;;;;;;;9.85;6.88;;;8.30;99.90;;;;;;5113439;28;20040;-71
2022/04/24 04:45:48;;;;;;;10.07;6.63;;;8.20;99.90;;;;;;5096408;28;20047;-71
2022/04/24 04:48:14;;;;;;;8.35;6.60;;;8.20;99.90;;;;;;5113420;28;20039;-71
2022/04/24 04:50:40;;;;;;;8.13;6.50;;;8.20;99.90;;;;;;5113256;28;20123;-71
2022/04/24 04:53:05;;;;;;;9.98;6.60;;;8.20;99.90;;;;;;5112444;28;20047;-71
2022/04/24 04:55:31;;;;;;;10.20;6.50;;;8.20;99.90;;;;;;5113583;28;20040;-71
2022/04/24 04:57:58;;;;;;;8.65;6.82;;;8.20;99.90;;;;;;5113181;28;20526;-71
2022/04/24 05:00:23;;;;;;;9.85;6.43;;;8.20;99.90;;;;;;5113202;28;20036;-71
2022/04/24 05:02:49;;;;;;;8.40;6.25;;;8.20;99.90;;;;;;5113060;28;20039;-71
2022/04/24 05:05:14;;;;;;;7.70;6.18;;;8.30;99.90;;;;;;5113134;28;20035;-71
2022/04/24 05:07:40;;;;;;;8.43;6.88;;;8.30;99.90;;;;;;5113052;28;20046;-71
2022/04/24 05:10:06;;;;;;;8.68;6.57;;;8.40;99.90;;;;;;5113020;28;20575;-70
2022/04/24 05:12:32;;;;;;;8.57;6.57;;;8.40;99.90;;;;;;5112961;28;20043;-70
2022/04/24 05:15:03;;;;;;;9.00;6.20;;;8.40;99.90;;;;;;5112816;28;20035;-70
2022/04/24 05:17:29;;;;;;;11.10;6.85;;;8.40;99.90;;;;;;5095881;28;20044;-71
2022/04/24 05:19:55;;;;;;;8.85;6.18;;;8.40;99.90;;;;;;5096121;28;20031;-71
2022/04/24 05:22:21;;;;;;;9.75;6.20;;;8.40;99.90;;;;;;5112657;28;20450;-71
2022/04/24 05:24:47;;;;;;;9.23;6.38;;;8.40;99.90;;;;;;5112603;28;20118;-71
2022/04/24 05:27:13;;;;;;;9.50;5.90;;;8.50;99.90;;;;;;5112652;28;20139;-70
2022/04/24 05:29:38;;;;;;;7.97;6.32;;;8.50;99.90;;;;;;5112702;28;20032;-70
2022/04/24 05:32:05;;;;;;;7.90;6.22;;;8.40;99.90;;;;;;5112666;28;20040;-70
2022/04/24 05:34:31;;;;;;;8.15;6.45;;;8.50;99.90;;;;;;5112358;28;20494;-71
2022/04/24 05:36:56;;;;;;;9.48;6.65;;;8.50;99.90;;;;;;5112532;28;20054;-71
2022/04/24 05:39:22;;;;;;;8.82;6.72;;;8.60;99.90;;;;;;5112535;28;20036;-71
2022/04/24 05:41:47;;;;;;;7.72;6.53;;;8.60;99.90;;;;;;5112510;28;20036;-71
2022/04/24 05:44:13;;;;;;;8.82;5.93;;;8.60;99.90;;;;;;5112387;28;20039;-71
2022/04/24 05:46:38;;;;;;;7.82;6.45;;;8.70;99.90;;;;;;5112416;28;20130;-71
2022/04/24 05:49:04;;;;;;;12.05;6.15;;;8.70;99.90;;;;;;5112402;28;20043;-71
2022/04/24 05:51:30;;;;;;;9.93;6.20;;;8.80;99.90;;;;;;5095423;28;20041;-71
2022/04/24 05:53:55;;;;;;;14.27;6.40;;;8.80;99.90;;;;;;5112348;28;20042;-71
2022/04/24 05:56:21;;;;;;;10.07;6.45;;;8.90;99.90;;;;;;5112355;28;20073;-71
2022/04/24 05:58:46;;;;;;;10.65;6.60;;;8.90;99.90;;;;;;5112338;28;20121;-71
2022/04/24 06:01:12;;;;;;;9.45;6.70;;;8.90;99.90;;;;;;5112306;28;20035;-71
2022/04/24 06:03:40;;;;;;;7.53;6.70;;;9.00;99.90;;;;;;5097276;28;20043;-71
2022/04/24 06:06:06;;;;;;;10.07;7.03;;;9.00;99.90;;;;;;5116512;28;20039;-71
2022/04/24 06:08:31;;;;;;;10.57;6.95;;;9.00;99.90;;;;;;5116545;28;20050;-71
2022/04/24 06:10:57;;;;;;;8.85;6.35;;;9.00;99.90;;;;;;5116503;28;20114;-71
2022/04/24 06:13:22;;;;;;;8.40;6.15;;;9.00;99.90;;;;;;5099649;28;20043;-71
2022/04/24 06:15:48;;;;;;;12.35;6.72;;;9.00;99.90;;;;;;5116394;28;20071;-71
2022/04/24 06:18:14;;;;;;;9.38;6.78;;;9.00;99.90;;;;;;5116620;28;20131;-71
2022/04/24 06:20:39;;;;;;;9.00;6.28;;;9.10;99.90;;;;;;5116340;28;20039;-71
2022/04/24 06:23:05;;;;;;;8.93;6.53;;;9.10;99.90;;;;;;5116190;28;20115;-71
2022/04/24 06:25:34;;;;;;;9.55;6.78;;;9.10;99.90;;;;;;5116260;28;20036;-71
2022/04/24 06:28:02;;;;;;;9.50;7.13;;;9.20;99.90;;;;;;5116260;28;20498;-71
2022/04/24 06:30:30;;;;;;;10.02;6.70;;;9.30;99.90;;;;;;5116119;28;20040;-71
2022/04/24 06:32:57;;;;;;;8.63;6.80;;;9.40;99.90;;;;;;5116154;28;20060;-71
2022/04/24 06:35:24;;;;;;;8.55;6.95;;;9.40;99.90;;;;;;5116059;28;20036;-71
2022/04/24 06:37:55;;;;;;;9.52;7.07;;;9.40;99.90;;;;;;5116440;28;20047;-71
2022/04/24 06:40:23;;;;;;;9.88;7.15;;;9.50;99.90;;;;;;5116016;28;20076;-71
2022/04/24 06:42:50;;;;;;;12.32;7.00;;;9.60;99.90;;;;;;5115808;28;20039;-71
2022/04/24 06:45:20;;;;;;;9.30;7.07;;;9.60;99.90;;;;;;5098694;28;20046;-70
2022/04/24 06:47:46;;;;;;;10.57;7.05;;;9.70;99.90;;;;;;5115796;28;20036;-71
2022/04/24 06:50:11;;;;;;;10.40;7.15;;;9.70;99.90;;;;;;5116014;28;20042;-71
2022/04/24 06:52:37;;;;;;;10.05;6.75;;;9.80;99.90;;;;;;5115619;28;20035;-71
2022/04/24 06:55:04;;;;;;;10.50;7.13;;;9.90;99.90;;;;;;5115671;28;20108;-71
2022/04/24 06:57:30;;;;;;;8.52;7.20;;;10.00;99.90;;;;;;5115619;28;20047;-71
2022/04/24 06:59:55;;;;;;;10.40;7.05;;;10.10;99.90;;;;;;5115621;28;20047;-71
2022/04/24 07:02:21;;;;;;;8.13;6.72;;;10.10;99.90;;;;;;5115544;28;20088;-71
2022/04/24 07:04:46;;;;;;;9.70;6.40;;;10.10;99.90;;;;;;5115378;28;20039;-71
2022/04/24 07:07:12;;;;;;;10.70;6.20;;;10.20;99.90;;;;;;5115332;28;20119;-71
2022/04/24 07:09:38;;;;;;;9.60;6.30;;;10.30;99.90;;;;;;5115342;28;20035;-73
2022/04/24 07:12:04;;;;;;;8.10;6.55;;;10.30;99.90;;;;;;5115346;28;20042;-71
2022/04/24 07:14:29;;;;;;;7.35;5.97;;;10.40;99.90;;;;;;5097246;28;20040;-71
2022/04/24 07:16:55;;;;;;;8.95;6.97;;;10.40;99.90;;;;;;5098221;28;20491;-71
2022/04/24 07:19:20;;;;;;;10.57;6.60;;;10.60;99.90;;;;;;5115206;28;20047;-71
2022/04/24 07:21:48;;;;;;;7.80;5.85;;;10.70;99.90;;;;;;5115181;28;20097;-71
2022/04/24 07:24:14;;;;;;;6.95;5.90;;;10.70;99.90;;;;;;5115448;28;20100;-71
2022/04/24 07:26:39;;;;;;;9.57;5.97;;;10.80;99.90;;;;;;5115211;28;20499;-71
2022/04/24 07:29:05;;;;;;;10.85;5.90;;;11.00;99.90;;;;;;5115214;28;20040;-71
2022/04/24 07:31:30;;;;;;;7.07;5.18;;;11.10;99.90;;;;;;5115233;28;20108;-71
2022/04/24 07:33:56;;;;;;;6.75;5.22;;;11.10;99.90;;;;;;5115286;28;20044;-71
2022/04/24 07:36:22;;;;;;;6.97;4.40;;;11.20;99.90;;;;;;5114902;28;20509;-71
2022/04/24 07:38:50;;;;;;;8.38;4.57;;;11.30;99.90;;;;;;5097857;28;20118;-71
2022/04/24 07:41:16;;;;;;;7.10;3.90;;;11.30;99.90;;;;;;5114777;28;20058;-71
2022/04/24 07:43:48;;;;;;;6.82;3.50;;;11.30;99.90;;;;;;5114658;28;20043;-71
2022/04/24 07:46:14;;;;;;;7.22;4.47;;;11.40;99.90;;;;;;5114606;28;20123;-71
2022/04/24 07:48:39;;;;;;;7.55;4.50;;;11.40;99.90;;;;;;5114888;28;20122;-71
2022/04/24 07:51:05;;;;;;;8.82;4.03;;;11.50;99.90;;;;;;5114815;28;20511;-71
2022/04/24 07:53:30;;;;;;;7.50;4.28;;;11.60;99.90;;;;;;5114449;28;20031;-71
2022/04/24 07:55:56;;;;;;;7.03;3.75;;;11.70;99.90;;;;;;5114483;28;20134;-71
2022/04/24 07:58:21;;;;;;;7.05;3.45;;;11.80;99.90;;;;;;5114737;28;20043;-71
2022/04/24 08:00:47;;;;;;;5.85;3.28;;;12.00;99.90;;;;;;5114360;28;20044;-70
2022/04/24 08:03:14;;;;;;;6.15;3.42;;;12.10;99.90;;;;;;5114165;28;20047;-70
2022/04/24 08:05:45;;;;;;;6.97;3.25;;;12.20;99.90;;;;;;5114037;28;20453;-70
2022/04/24 08:08:17;;;;;;;5.50;2.95;;;12.30;99.90;;;;;;5097237;28;20441;-71
2022/04/24 08:10:45;;;;;;;5.75;3.22;;;12.50;99.90;;;;;;5114163;28;20047;-70
2022/04/24 08:13:11;;;;;;;5.40;2.80;;;12.50;99.90;;;;;;5113966;28;20039;-71
2022/04/24 08:15:38;;;;;;;4.40;2.80;;;12.60;99.90;;;;;;5097217;28;20069;-71
2022/04/24 08:18:05;;;;;;;5.90;2.60;;;12.70;99.90;;;;;;5097367;28;20089;-71
2022/04/24 08:20:32;;;;;;;4.90;2.72;;;12.90;99.70;;;;;;5114033;28;20044;-71
2022/04/24 08:22:59;;;;;;;5.00;2.25;;;13.00;99.50;;;;;;5113894;28;20075;-71
2022/04/24 08:25:26;;;;;;;5.22;2.58;;;13.20;99.40;;;;;;5113810;28;20050;-71
2022/04/24 08:27:54;;;;;;;4.93;2.70;;;13.30;98.50;;;;;;5113738;28;20074;-71
2022/04/24 08:30:23;;;;;;;6.88;2.28;;;13.50;98.10;;;;;;5113763;28;20084;-71
2022/04/24 08:32:49;;;;;;;4.30;2.08;;;13.70;96.90;;;;;;5113784;28;20097;-71
2022/04/24 08:35:16;;;;;;;4.45;2.03;;;13.80;95.20;;;;;;5114273;28;20526;-71
2022/04/24 08:37:43;;;;;;;4.53;2.13;;;14.00;92.40;;;;;;5113636;28;20047;-71
2022/04/24 08:40:11;;;;;;;4.97;1.85;;;14.10;92.00;;;;;;5113596;28;20425;-72
2022/04/24 08:42:37;;;;;;;6.18;1.80;;;14.20;92.00;;;;;;5114525;28;20078;-72
2022/04/24 08:45:04;;;;;;;4.13;2.08;;;14.40;91.10;;;;;;5113475;28;20491;-72
2022/04/24 08:47:31;;;;;;;4.55;2.00;;;14.50;86.40;;;;;;5113345;28;20495;-72
2022/04/24 08:49:59;;;;;;;4.88;2.25;;;14.60;83.60;;;;;;5096454;28;20036;-72
2022/04/24 08:52:27;;;;;;;5.15;2.35;;;14.70;80.90;;;;;;5096598;28;20510;-72
2022/04/24 08:54:53;;;;;;;4.00;2.20;;;14.80;80.80;;;;;;5096188;28;20039;-72
2022/04/24 08:57:19;;;;;;;5.03;2.42;;;14.90;80.00;;;;;;5113299;28;20040;-73
2022/04/24 08:59:46;;;;;;;3.85;1.98;;;15.00;77.90;;;;;;5113236;28;20510;-73
2022/04/24 09:02:12;;;;;;;3.45;2.10;;;15.10;75.70;;;;;;5113175;28;20086;-73
2022/04/24 09:04:39;;;;;;;3.83;2.08;;;15.10;73.10;;;;;;5113312;28;20044;-73
2022/04/24 09:07:06;;;;;;;5.90;2.30;;;15.20;70.60;;;;;;5113119;28;20123;-73
2022/04/24 09:09:43;;;;;;;3.85;2.30;;;15.30;69.30;;;;;;5096112;28;20042;-72
2022/04/24 09:12:16;;;;;;;5.60;2.00;;;15.40;71.30;;;;;;5113023;28;20053;-72
2022/04/24 09:14:47;;;;;;;5.88;2.42;;;15.50;67.80;;;;;;5095949;28;20035;-72
2022/04/24 09:17:27;;;;;;;5.82;2.55;;;15.70;65.40;;;;;;5112966;28;20127;-72
2022/04/24 09:19:54;;;;;;;4.72;2.20;;;15.80;65.30;;;;;;5112907;28;20092;-72
2022/04/24 09:22:22;;;;;;;5.25;2.15;;;15.90;64.90;;;;;;5113095;28;20402;-73
2022/04/24 09:24:55;;;;;;;5.05;2.25;;;16.20;65.10;;;;;;5112922;28;20040;-73
2022/04/24 09:27:34;;;;;;;3.47;2.10;;;16.40;63.80;;;;;;5112744;28;20042;-73
2022/04/24 09:30:01;;;;;;;3.30;2.35;;;16.60;61.90;;;;;;5112694;28;20060;-73
2022/04/24 09:32:36;;;;;;;4.13;2.40;;;16.60;61.90;;;;;;5112949;28;20399;-73
2022/04/24 09:35:03;;;;;;;4.00;2.15;;;16.70;60.70;;;;;;5112657;28;20042;-73
2022/04/24 09:37:37;;;;;;;4.93;2.38;;;16.60;60.50;;;;;;5095054;28;20089;-73
2022/04/24 09:40:03;;;;;;;5.55;2.30;;;16.70;59.00;;;;;;5095627;28;20375;-73
2022/04/24 09:42:29;;;;;;;5.22;2.58;;;16.70;59.60;;;;;;5112798;28;20475;-72
2022/04/24 09:44:54;;;;;;;5.95;2.60;;;16.80;60.60;;;;;;5095767;28;20533;-72
2022/04/24 09:47:25;;;;;;;5.60;2.13;;;16.90;59.50;;;;;;5112328;28;20510;-72
2022/04/24 09:49:51;;;;;;;3.97;2.40;;;17.00;58.50;;;;;;5112436;28;20035;-72
2022/04/24 09:52:23;;;;;;;3.28;2.35;;;17.10;59.40;;;;;;5112672;28;20046;-72
2022/04/24 09:54:53;;;;;;;5.63;2.33;;;17.30;59.20;;;;;;5112727;28;20518;-72
2022/04/24 09:57:21;;;;;;;6.63;1.88;;;17.40;58.90;;;;;;5112374;28;20445;-73
2022/04/24 09:59:48;;;;;;;5.22;2.38;;;17.60;57.70;;;;;;5112359;28;20044;-72
2022/04/24 10:02:18;;;;;;;7.80;2.35;;;17.60;56.20;;;;;;5112658;28;20062;-72
2022/04/24 10:04:46;;;;;;;3.80;2.28;;;17.60;55.20;;;;;;5112448;28;20035;-72
2022/04/24 10:07:14;;;;;;;6.63;2.50;;;17.70;55.70;;;;;;5112281;28;20418;-72
2022/04/24 10:09:41;;;;;;;5.07;1.75;;;17.70;55.00;;;;;;5112233;28;20046;-72
2022/04/24 10:12:09;;;;;;;4.70;2.33;;;17.80;55.20;;;;;;5112235;28;20040;-72
2022/04/24 10:14:52;;;;;;;4.32;2.38;;;18.00;54.90;;;;;;5112100;28;20036;-72
2022/04/24 10:17:43;;;;;;;4.78;2.30;;;18.20;52.70;;;;;;5112454;28;20411;-72
2022/04/24 10:20:35;;;;;;;2.42;1.83;;;18.50;53.20;;;;;;5112110;28;20051;-72
2022/04/24 10:23:00;;;;;;;3.38;2.20;;;18.70;51.90;;;;;;5112119;28;20503;-72
2022/04/24 10:25:40;;;;;;;5.07;1.70;;;18.70;52.70;;;;;;5112101;28;20039;-72
2022/04/24 10:28:16;;;;;;;4.05;2.15;;;18.80;49.90;;;;;;5111976;28;20043;-72
2022/04/24 10:30:44;;;;;;;5.68;2.30;;;18.90;50.70;;;;;;5095083;28;20039;-72
2022/04/24 10:33:22;;;;;;;4.90;2.33;;;18.80;51.10;;;;;;5112109;28;20111;-72
2022/04/24 10:35:59;;;;;;;4.80;2.00;;;18.90;51.30;;;;;;5112296;28;20484;-72
2022/04/24 10:38:26;;;;;;;3.80;1.50;;;18.90;50.50;;;;;;5112280;28;20510;-72
2022/04/24 10:41:01;;;;;;;3.92;2.05;;;18.80;49.50;;;;;;5111910;28;20039;-72
2022/04/24 10:43:48;;;;;;;3.17;1.50;;;18.90;47.60;;;;;;5111870;28;20127;-72
2022/04/24 10:46:28;;;;;;;3.95;1.58;;;19.00;48.30;;;;;;5111851;28;20031;-72
2022/04/24 10:49:06;;;;;;;4.93;1.50;;;19.00;46.90;;;;;;5112577;28;20076;-72
2022/04/24 10:51:32;;;;;;;4.13;1.55;;;19.10;48.20;;;;;;5117192;28;20044;-72
2022/04/24 10:53:59;;;;;;;6.25;1.52;;;19.10;47.40;;;;;;5115645;28;20040;-72
2022/04/24 10:56:26;;;;;;;4.70;1.50;;;19.30;47.80;;;;;;5115660;28;20101;-72
2022/04/24 10:58:52;;;;;;;4.43;1.42;;;19.50;46.70;;;;;;5115887;28;20161;-72
2022/04/24 11:01:18;;;;;;;5.55;1.98;;;19.70;46.10;;;;;;5115518;28;20505;-72
2022/04/24 11:03:45;;;;;;;5.95;1.83;;;19.80;45.40;;;;;;5098405;28;20122;-72
2022/04/24 11:06:19;;;;;;;2.88;1.70;;;19.80;45.30;;;;;;5098589;28;20039;-72
2022/04/24 11:08:45;;;;;;;6.93;2.05;;;19.80;47.70;;;;;;5115375;28;20122;-72
2022/04/24 11:11:13;;;;;;;2.72;1.40;;;20.10;47.80;;;;;;5115358;28;20495;-72
2022/04/24 11:13:39;;;;;;;5.65;2.00;;;20.20;46.60;;;;;;5115239;28;20036;-72
2022/04/24 11:16:06;;;;;;;4.72;2.25;;;20.20;46.90;;;;;;5115516;28;20039;-72
2022/04/24 11:18:32;;;;;;;5.63;2.30;;;19.70;46.70;;;;;;5115219;28;20054;-72
2022/04/24 11:21:03;;;;;;;4.55;1.92;;;19.50;47.10;;;;;;5098218;28;20131;-72
2022/04/24 11:23:32;;;;;;;3.28;1.88;;;19.30;47.50;;;;;;5115072;28;20521;-72
2022/04/24 11:25:59;;;;;;;3.35;2.08;;;19.00;47.70;;;;;;5114992;28;20384;-72
2022/04/24 11:28:45;;;;;;;4.00;2.10;;;18.80;48.30;;;;;;5115016;28;20032;-72
2022/04/24 11:31:22;;;;;;;3.38;2.00;;;18.70;49.00;;;;;;5115275;28;20039;-72
2022/04/24 11:34:00;;;;;;;7.95;1.65;;;18.50;49.20;;;;;;5114638;28;20075;-72
2022/04/24 11:36:34;;;;;;;2.53;1.67;;;18.70;49.10;;;;;;5114891;28;20071;-72
2022/04/24 11:39:05;;;;;;;3.67;2.38;;;18.50;49.60;;;;;;5115029;28;20036;-72
2022/04/24 11:41:31;;;;;;;2.88;1.83;;;18.40;49.30;;;;;;5114837;28;20088;-73
2022/04/24 11:52:27;;;;;;;5.53;1.55;;;19.00;48.90;;;;;;5114913;28;20048;-74
2022/04/24 11:54:54;;;;;;;3.92;1.50;;;19.00;48.30;;;;;;5097673;28;20028;-74
2022/04/24 11:57:20;;;;;;;3.30;1.40;;;18.90;48.00;;;;;;5097897;28;20065;-74
2022/04/24 11:59:54;;;;;;;5.03;1.73;;;18.90;47.90;;;;;;5114905;28;20031;-74
2022/04/24 12:02:23;;;;;;;3.60;1.55;;;19.10;47.70;;;;;;5114034;28;20073;-74
2022/04/24 12:04:50;;;;;;;3.05;1.50;;;19.30;47.50;;;;;;5114213;28;20042;-74
2022/04/24 12:07:15;;;;;;;2.38;1.30;;;19.50;47.00;;;;;;5114238;28;20503;-74
2022/04/24 12:09:41;;;;;;;3.75;1.50;;;19.50;46.00;;;;;;5097222;28;20089;-74
2022/04/24 12:12:12;;;;;;;3.13;1.50;;;19.10;46.00;;;;;;5114250;28;20067;-74
2022/04/24 12:14:39;;;;;;;6.95;1.52;;;19.00;46.80;;;;;;5114088;28;20043;-74
2022/04/24 12:17:08;;;;;;;3.78;1.65;;;18.90;46.70;;;;;;5114055;28;20388;-74
2022/04/24 12:19:34;;;;;;;4.13;1.75;;;18.70;46.60;;;;;;5114063;28;20047;-74
2022/04/24 12:22:06;;;;;;;6.00;1.70;;;18.60;47.40;;;;;;5114291;28;20036;-74
2022/04/24 12:24:39;;;;;;;4.93;1.80;;;18.80;47.90;;;;;;5114199;28;20035;-74
2022/04/24 12:27:05;;;;;;;4.10;1.70;;;19.10;48.20;;;;;;5113815;28;20427;-74
2022/04/24 12:29:41;;;;;;;4.40;2.00;;;19.40;48.10;;;;;;5096833;28;20036;-74
2022/04/24 12:32:12;;;;;;;4.80;2.15;;;19.70;47.10;;;;;;5113849;28;20118;-74
2022/04/24 12:34:38;;;;;;;6.57;2.17;;;19.90;46.80;;;;;;5113877;28;20101;-74
2022/04/24 12:37:03;;;;;;;4.78;2.45;;;20.20;46.70;;;;;;5113689;28;20070;-74
2022/04/24 12:39:29;;;;;;;6.00;2.20;;;20.50;46.00;;;;;;5114197;28;20122;-74
2022/04/24 12:41:55;;;;;;;6.90;2.67;;;20.40;45.40;;;;;;5113628;28;20451;-74
2022/04/24 12:44:21;;;;;;;4.28;2.42;;;20.50;46.80;;;;;;5113450;28;20035;-74
2022/04/24 12:46:47;;;;;;;6.65;2.03;;;20.40;46.10;;;;;;5096449;28;20066;-74
2022/04/24 12:49:14;;;;;;;7.63;2.03;;;20.20;46.50;;;;;;5113632;28;20032;-74
2022/04/24 12:51:40;;;;;;;3.28;2.03;;;19.90;46.90;;;;;;5096428;28;20047;-74
2022/04/24 12:54:06;;;;;;;3.78;2.22;;;19.90;46.60;;;;;;5113313;28;20105;-74
2022/04/24 12:56:32;;;;;;;4.03;1.67;;;20.00;47.20;;;;;;5113626;28;20043;-74
2022/04/24 12:58:58;;;;;;;5.55;2.00;;;20.10;46.80;;;;;;5113589;28;20039;-75